Time;durP1;ratioP1;P1;durP2;ratioP2;P2;SDS_P1;SDS_P2;PMS_P1;PMS_P2;Temp;Humidity;BMP_temperature;BMP_pressure;BME280_temperature;BME280_humidity;BME280_pressure;Samples;Min_cycle;Max_cycle;Signal;HPM_P1;HPM_P2
2021/10/24 00:01:14;;;;;;;8.95;2.95;;;;;;;24.43;20.22;99477.84;5074136;28;20028;-80
2021/10/24 00:03:40;;;;;;;7.53;2.75;;;;;;;24.55;20.09;99475.41;5069086;28;20028;-80
2021/10/24 00:06:06;;;;;;;14.52;4.00;;;;;;;24.36;20.34;99483.47;5070657;28;20028;-81
2021/10/24 00:08:32;;;;;;;4.43;2.17;;;;;;;24.33;20.18;99490.69;5065166;28;20028;-80
2021/10/24 00:10:58;;;;;;;9.65;2.90;;;;;;;24.39;20.43;99491.88;5063308;28;20047;-80
2021/10/24 00:13:24;;;;;;;7.50;2.25;;;;;;;24.36;20.14;99494.69;5057899;28;20085;-80
2021/10/24 00:15:51;;;;;;;6.50;2.58;;;;;;;24.27;20.31;99497.88;5067279;28;20478;-80
2021/10/24 00:18:17;;;;;;;6.60;3.15;;;;;;;24.20;20.42;99506.31;5065614;28;20060;-81
2021/10/24 00:20:43;;;;;;;8.52;2.67;;;;;;;24.11;20.52;99503.09;5071479;28;20118;-80
2021/10/24 00:23:09;;;;;;;7.80;3.05;;;;;;;24.20;20.49;99509.13;5065534;28;20449;-81
2021/10/24 00:25:35;;;;;;;8.18;3.03;;;;;;;24.33;20.16;99504.72;5064497;28;20041;-81
2021/10/24 00:28:02;;;;;;;7.45;3.13;;;;;;;24.27;20.46;99503.50;5068787;28;20029;-80
2021/10/24 00:30:28;;;;;;;10.30;2.83;;;;;;;24.05;20.77;99497.06;5068825;28;20033;-80
2021/10/24 00:32:54;;;;;;;8.07;3.13;;;;;;;24.17;20.23;99495.91;5066201;28;20032;-81
2021/10/24 00:35:20;;;;;;;10.50;2.85;;;;;;;24.33;20.21;99506.72;5069752;28;20033;-81
2021/10/24 00:37:47;;;;;;;7.43;2.45;;;;;;;24.37;20.06;99504.72;5064691;28;20029;-80
2021/10/24 00:40:13;;;;;;;6.90;2.70;;;;;;;24.23;20.26;99507.50;5068809;28;20036;-80
2021/10/24 00:42:47;;;;;;;8.05;2.80;;;;;;;24.21;20.08;99504.31;5065293;28;20040;-80
2021/10/24 00:45:13;;;;;;;6.88;2.50;;;;;;;24.42;20.04;99504.31;5070690;28;20040;-80
2021/10/24 00:47:39;;;;;;;5.50;2.80;;;;;;;24.61;19.87;99503.88;5071847;28;20040;-81
2021/10/24 00:50:06;;;;;;;6.18;2.50;;;;;;;24.57;20.17;99497.47;5072229;28;20396;-80
2021/10/24 00:52:32;;;;;;;7.90;2.60;;;;;;;24.77;19.66;99495.84;5070482;28;20147;-80
2021/10/24 00:54:58;;;;;;;7.15;2.50;;;;;;;24.69;19.72;99500.66;5046135;28;20063;-80
2021/10/24 00:57:24;;;;;;;6.45;2.72;;;;;;;24.81;19.65;99505.06;5071710;28;20097;-80
2021/10/24 00:59:50;;;;;;;5.95;2.45;;;;;;;24.87;19.68;99497.03;5068222;28;20174;-80
2021/10/24 01:02:17;;;;;;;7.90;3.10;;;;;;;24.94;19.70;99497.03;5074184;28;20048;-80
2021/10/24 01:04:43;;;;;;;6.85;2.95;;;;;;;25.10;19.57;99491.75;5068377;28;20029;-80
2021/10/24 01:07:12;;;;;;;7.25;2.50;;;;;;;25.29;19.17;99497.69;5064630;28;20483;-80
2021/10/24 01:09:40;;;;;;;7.05;2.67;;;;;;;25.30;18.92;99487.25;5072945;28;20507;-80
2021/10/24 01:12:06;;;;;;;7.18;2.40;;;;;;;25.37;18.97;99499.25;5074430;28;20036;-80
2021/10/24 01:14:32;;;;;;;8.05;2.22;;;;;;;25.68;18.64;99505.97;5072607;28;20043;-80
2021/10/24 01:16:59;;;;;;;7.35;2.25;;;;;;;25.84;18.46;99499.81;5066352;28;20027;-81
2021/10/24 01:19:25;;;;;;;8.38;2.80;;;;;;;25.58;18.37;99512.44;5072068;28;20498;-80
2021/10/24 01:21:51;;;;;;;9.75;2.45;;;;;;;25.34;18.93;99510.53;5067647;28;20115;-80
2021/10/24 01:24:18;;;;;;;6.95;2.70;;;;;;;25.50;18.95;99510.09;5065807;28;20043;-80
2021/10/24 01:26:44;;;;;;;6.00;2.60;;;;;;;25.34;18.87;99508.50;5071372;28;20020;-80
2021/10/24 01:29:11;;;;;;;5.18;1.88;;;;;;;25.53;19.04;99512.09;5069190;28;20039;-80
2021/10/24 01:31:38;;;;;;;6.85;2.92;;;;;;;25.58;19.15;99520.88;5073349;28;25267;-80
2021/10/24 01:34:04;;;;;;;5.93;1.80;;;;;;;25.78;18.66;99515.56;5077276;28;20391;-80
2021/10/24 01:36:31;;;;;;;6.63;2.60;;;;;;;25.83;18.68;99509.50;5071728;28;20028;-80
2021/10/24 01:38:57;;;;;;;2.85;1.70;;;;;;;25.62;18.71;99516.06;5072345;28;20029;-80
2021/10/24 01:41:24;;;;;;;4.70;1.95;;;;;;;25.83;18.57;99517.94;5058015;28;20027;-80
2021/10/24 01:43:51;;;;;;;5.45;2.20;;;;;;;26.07;18.34;99511.31;5065745;28;20052;-80
2021/10/24 01:46:18;;;;;;;6.95;2.08;;;;;;;26.29;18.30;99512.00;5073003;28;20029;-80
2021/10/24 01:48:45;;;;;;;3.97;2.38;;;;;;;26.33;18.43;99519.19;5061005;28;20061;-80
2021/10/24 01:51:12;;;;;;;4.82;2.17;;;;;;;26.24;18.33;99513.25;5065189;28;20047;-80
2021/10/24 01:53:40;;;;;;;9.05;2.20;;;;;;;26.15;18.64;99520.56;5069907;28;20035;-80
2021/10/24 01:56:07;;;;;;;7.38;2.88;;;;;;;26.02;18.63;99521.00;5080120;28;20474;-80
2021/10/24 01:58:35;;;;;;;7.10;2.63;;;;;;;25.96;18.91;99517.03;5076495;28;20021;-80
2021/10/24 02:01:01;;;;;;;6.35;2.60;;;;;;;26.09;18.96;99523.75;5068061;28;20041;-80
2021/10/24 02:03:28;;;;;;;5.18;1.90;;;;;;;26.25;18.83;99514.84;5068357;28;20115;-80
2021/10/24 02:05:54;;;;;;;5.00;2.30;;;;;;;26.39;18.30;99520.38;5067066;28;20071;-80
2021/10/24 02:08:20;;;;;;;6.78;2.42;;;;;;;26.27;18.57;99526.50;5068668;28;20111;-80
2021/10/24 02:10:46;;;;;;;7.68;2.65;;;;;;;26.33;18.45;99519.19;5072171;28;20036;-80
2021/10/24 02:13:12;;;;;;;4.43;2.30;;;;;;;26.21;18.66;99518.91;5087273;28;20047;-80
2021/10/24 02:15:39;;;;;;;8.18;2.67;;;;;;;26.20;19.01;99523.72;5077737;28;20051;-81
2021/10/24 02:18:07;;;;;;;5.45;2.65;;;;;;;25.96;19.27;99519.84;5089695;28;20188;-80
2021/10/24 02:20:34;;;;;;;7.53;2.60;;;;;;;25.97;19.06;99512.22;5079861;28;20119;-80
2021/10/24 02:23:01;;;;;;;8.05;2.28;;;;;;;25.86;19.44;99517.91;5087702;28;20046;-80
2021/10/24 02:25:28;;;;;;;7.25;2.70;;;;;;;25.67;19.43;99526.06;5091718;28;20032;-80
2021/10/24 02:27:54;;;;;;;5.82;2.60;;;;;;;25.79;19.37;99537.63;5079975;28;20025;-80
2021/10/24 02:30:20;;;;;;;6.40;2.58;;;;;;;26.04;19.35;99524.19;5075376;28;20047;-81
2021/10/24 02:32:46;;;;;;;8.55;3.10;;;;;;;26.17;19.15;99526.56;5074020;28;20047;-80
2021/10/24 02:35:13;;;;;;;7.80;3.30;;;;;;;26.14;19.00;99525.38;5091972;28;20036;-81
2021/10/24 02:37:40;;;;;;;7.05;3.08;;;;;;;26.14;19.04;99516.94;5074912;28;20032;-81
2021/10/24 02:40:08;;;;;;;7.55;3.15;;;;;;;26.15;19.00;99529.00;5070871;28;20425;-80
2021/10/24 02:42:34;;;;;;;5.13;2.55;;;;;;;26.21;19.12;99521.72;5064834;28;20060;-81
2021/10/24 02:45:01;;;;;;;6.20;2.42;;;;;;;26.44;18.85;99524.75;5071078;28;20029;-81
2021/10/24 02:47:27;;;;;;;8.48;2.67;;;;;;;26.59;18.73;99529.03;5074676;28;20037;-81
2021/10/24 02:49:53;;;;;;;7.40;3.00;;;;;;;26.70;18.37;99529.72;5069619;28;20041;-80
2021/10/24 02:52:19;;;;;;;8.70;2.78;;;;;;;26.40;18.93;99532.41;5066401;28;20037;-81
2021/10/24 02:54:45;;;;;;;9.50;2.95;;;;;;;26.05;19.29;99539.88;5074599;28;20508;-80
2021/10/24 02:57:11;;;;;;;6.70;3.05;;;;;;;25.64;19.53;99546.56;5054715;28;20025;-80
2021/10/24 02:59:38;;;;;;;9.02;4.65;;;;;;;25.53;19.88;99537.41;5075793;28;20144;-80
2021/10/24 03:02:05;;;;;;;6.70;2.90;;;;;;;25.68;19.56;99533.28;5073229;28;20033;-80
2021/10/24 03:04:31;;;;;;;11.95;3.67;;;;;;;25.67;19.44;99542.94;5073761;28;20028;-81
2021/10/24 03:06:58;;;;;;;7.68;2.90;;;;;;;25.68;19.48;99536.09;5070088;28;20029;-80
2021/10/24 03:09:24;;;;;;;7.25;3.35;;;;;;;25.84;19.40;99544.84;5069930;28;20071;-80
2021/10/24 03:11:50;;;;;;;6.70;3.10;;;;;;;25.86;19.14;99546.03;5073660;28;20503;-80
2021/10/24 03:14:17;;;;;;;8.25;2.88;;;;;;;25.76;19.12;99546.13;5070824;28;20036;-80
2021/10/24 03:16:43;;;;;;;9.65;3.25;;;;;;;25.83;18.97;99558.13;5078117;28;20027;-81
2021/10/24 03:19:10;;;;;;;8.05;3.33;;;;;;;25.65;19.39;99546.16;5074173;28;20082;-81
2021/10/24 03:21:36;;;;;;;5.22;2.72;;;;;;;25.52;19.45;99544.22;5063728;28;20032;-81
2021/10/24 03:24:04;;;;;;;5.93;2.90;;;;;;;25.65;19.19;99548.19;5074272;28;20040;-80
2021/10/24 03:26:34;;;;;;;8.38;2.60;;;;;;;25.63;18.91;99564.66;5077482;28;20024;-81
2021/10/24 03:29:00;;;;;;;9.48;2.78;;;;;;;25.55;19.00;99558.28;5084593;28;20099;-80
2021/10/24 03:31:28;;;;;;;10.02;4.05;;;;;;;25.63;19.03;99559.84;5073405;28;20088;-80
2021/10/24 03:33:54;;;;;;;8.02;3.85;;;;;;;25.64;18.62;99569.09;5049461;28;20094;-80
2021/10/24 03:36:21;;;;;;;8.88;4.07;;;;;;;25.45;18.69;99569.56;5071810;28;20069;-80
2021/10/24 03:38:47;;;;;;;9.95;4.47;;;;;;;25.41;19.14;99566.75;5068456;28;20044;-80
2021/10/24 03:41:13;;;;;;;7.60;4.03;;;;;;;25.40;18.77;99560.31;5069792;28;20028;-80
2021/10/24 03:43:40;;;;;;;10.60;4.22;;;;;;;25.49;18.83;99567.53;5066372;28;20042;-80
2021/10/24 03:46:06;;;;;;;10.88;4.10;;;;;;;25.56;19.04;99568.31;5050268;28;20033;-80
2021/10/24 03:48:32;;;;;;;7.97;2.80;;;;;;;25.48;18.84;99565.94;5065632;28;20487;-80
2021/10/24 03:50:58;;;;;;;6.72;2.70;;;;;;;25.52;18.83;99567.53;5068461;28;20485;-80
2021/10/24 03:53:24;;;;;;;10.40;3.70;;;;;;;25.33;18.73;99571.59;5065155;28;20082;-80
2021/10/24 03:55:51;;;;;;;10.48;4.45;;;;;;;25.21;18.81;99580.44;5076238;28;20099;-80
2021/10/24 03:58:17;;;;;;;7.55;4.45;;;;;;;25.26;18.89;99577.22;5068964;28;20111;-80
2021/10/24 04:00:44;;;;;;;9.77;4.93;;;;;;;25.09;18.65;99566.81;5070329;28;20024;-80
2021/10/24 04:03:10;;;;;;;8.10;3.40;;;;;;;25.05;19.00;99570.84;5069188;28;20040;-80
2021/10/24 04:05:38;;;;;;;11.98;5.22;;;;;;;24.97;19.23;99575.69;5067648;28;20147;-80
2021/10/24 04:08:04;;;;;;;6.60;3.05;;;;;;;24.67;19.29;99578.91;5067366;28;20111;-80
2021/10/24 04:10:30;;;;;;;8.13;3.80;;;;;;;24.33;20.04;99569.28;5070828;28;20544;-80
2021/10/24 04:12:57;;;;;;;11.15;5.50;;;;;;;24.28;20.12;99569.69;5068407;28;20041;-81
2021/10/24 04:15:25;;;;;;;14.00;5.22;;;;;;;24.50;19.61;99573.31;5069939;28;20060;-80
2021/10/24 04:17:52;;;;;;;6.80;3.20;;;;;;;24.63;19.62;99571.69;5066753;28;20029;-81
2021/10/24 04:20:20;;;;;;;9.15;3.47;;;;;;;24.78;19.06;99567.72;5073901;28;20040;-80
2021/10/24 04:22:48;;;;;;;7.28;2.95;;;;;;;24.96;18.79;99573.28;5052139;28;20499;-80
2021/10/24 04:25:15;;;;;;;6.65;2.88;;;;;;;24.62;18.83;99575.72;5072146;28;20474;-80
2021/10/24 04:27:42;;;;;;;8.52;3.28;;;;;;;24.56;18.98;99586.53;5065982;28;20029;-80
2021/10/24 04:30:09;;;;;;;7.18;2.45;;;;;;;24.42;19.18;99580.09;5070831;28;20027;-80
2021/10/24 04:32:37;;;;;;;6.00;2.13;;;;;;;24.42;19.21;99589.34;5065593;28;20032;-80
2021/10/24 04:35:04;;;;;;;5.90;2.65;;;;;;;24.38;18.95;99582.13;5072969;28;20056;-80
2021/10/24 04:37:30;;;;;;;4.13;1.98;;;;;;;24.09;19.22;99589.69;5062499;28;20120;-80
2021/10/24 04:39:56;;;;;;;6.82;2.05;;;;;;;23.94;19.34;99607.69;5070906;28;20033;-80
2021/10/24 04:42:23;;;;;;;5.40;2.20;;;;;;;23.77;19.71;99609.22;5069310;28;20033;-80
2021/10/24 04:44:49;;;;;;;4.65;2.63;;;;;;;23.60;19.73;99612.75;5072181;28;20431;-80
2021/10/24 04:47:15;;;;;;;4.00;2.22;;;;;;;23.58;19.99;99611.53;5074179;28;20123;-81
2021/10/24 04:49:41;;;;;;;6.93;2.25;;;;;;;23.59;19.99;99613.97;5071810;28;20028;-80
2021/10/24 04:52:07;;;;;;;4.28;1.90;;;;;;;23.90;19.47;99613.25;5070890;28;20043;-80
2021/10/24 04:54:35;;;;;;;4.20;2.00;;;;;;;24.05;19.40;99620.53;5068129;28;20056;-80
2021/10/24 04:57:02;;;;;;;4.80;1.85;;;;;;;24.18;18.81;99612.56;5076654;28;20549;-80
2021/10/24 04:59:28;;;;;;;3.72;1.92;;;;;;;24.18;18.85;99623.78;5079407;28;20043;-80
2021/10/24 05:01:54;;;;;;;5.95;1.88;;;;;;;24.24;18.37;99627.00;5080770;28;20128;-80
2021/10/24 05:04:21;;;;;;;3.30;2.13;;;;;;;24.28;18.41;99619.41;5075094;28;20393;-80
2021/10/24 05:06:47;;;;;;;6.45;1.95;;;;;;;24.37;18.20;99625.41;5075284;28;20107;-80
2021/10/24 05:09:13;;;;;;;4.68;2.00;;;;;;;24.37;18.18;99631.84;5063052;28;20143;-80
2021/10/24 05:11:39;;;;;;;5.68;2.47;;;;;;;24.25;18.13;99628.63;5083487;28;20028;-80
2021/10/24 05:14:09;;;;;;;3.50;1.70;;;;;;;24.18;18.21;99631.44;5069522;28;20102;-80
2021/10/24 05:16:36;;;;;;;3.90;2.17;;;;;;;24.04;18.17;99624.53;5074269;28;20028;-80
2021/10/24 05:19:03;;;;;;;8.40;2.28;;;;;;;23.85;18.43;99638.88;5071529;28;20067;-80
2021/10/24 05:21:31;;;;;;;4.97;1.83;;;;;;;23.96;18.55;99641.75;5065716;28;20032;-80
2021/10/24 05:23:57;;;;;;;3.70;1.67;;;;;;;23.73;18.76;99639.28;5056151;28;20039;-80
2021/10/24 05:26:23;;;;;;;4.97;2.33;;;;;;;23.50;18.93;99637.94;5065230;28;20028;-80
2021/10/24 05:28:49;;;;;;;3.15;1.92;;;;;;;23.41;18.99;99645.91;5067478;28;20037;-80
2021/10/24 05:31:16;;;;;;;3.45;2.13;;;;;;;23.45;18.96;99644.72;5066166;28;20067;-80
2021/10/24 05:33:42;;;;;;;3.47;1.70;;;;;;;23.65;18.73;99648.03;5063852;28;20045;-81
2021/10/24 05:36:08;;;;;;;3.72;1.83;;;;;;;23.90;18.36;99657.34;5045084;28;20063;-80
2021/10/24 05:38:34;;;;;;;5.20;1.90;;;;;;;24.04;18.09;99658.19;5069129;28;20078;-80
2021/10/24 05:41:00;;;;;;;4.18;1.83;;;;;;;24.02;18.16;99669.03;5065575;28;20082;-80
2021/10/24 05:43:27;;;;;;;5.13;1.80;;;;;;;24.10;17.93;99674.69;5074016;28;20049;-80
2021/10/24 05:45:53;;;;;;;5.88;1.90;;;;;;;24.08;18.07;99675.09;5080669;28;20176;-81
2021/10/24 05:48:19;;;;;;;6.78;2.10;;;;;;;23.86;18.23;99679.78;5052703;28;20044;-81
2021/10/24 05:50:45;;;;;;;2.65;1.90;;;;;;;23.72;18.53;99674.09;5045950;28;20095;-81
2021/10/24 05:53:11;;;;;;;3.50;1.73;;;;;;;23.64;18.66;99674.47;5070057;28;20067;-81
2021/10/24 05:55:38;;;;;;;4.15;1.98;;;;;;;23.76;18.64;99672.13;5069661;28;20468;-80
2021/10/24 05:58:04;;;;;;;3.60;1.95;;;;;;;23.93;18.35;99674.19;5076746;28;20390;-80
2021/10/24 06:00:32;;;;;;;5.25;2.08;;;;;;;24.01;18.09;99678.63;5070778;28;20051;-80
2021/10/24 06:03:04;;;;;;;4.70;2.20;;;;;;;24.12;18.08;99677.91;5066036;28;20402;-80
2021/10/24 06:05:31;;;;;;;3.50;1.92;;;;;;;23.86;18.46;99687.38;5068506;28;20036;-80
2021/10/24 06:07:57;;;;;;;5.53;2.10;;;;;;;23.78;18.69;99680.16;5063523;28;20033;-80
2021/10/24 06:10:28;;;;;;;3.38;1.63;;;;;;;23.91;18.62;99690.63;5071840;28;20089;-81
2021/10/24 06:12:54;;;;;;;5.40;2.05;;;;;;;24.17;18.33;99697.97;5070217;28;20033;-81
2021/10/24 06:15:22;;;;;;;3.97;1.70;;;;;;;23.99;18.67;99695.06;5072201;28;20032;-80
2021/10/24 06:17:49;;;;;;;3.35;2.08;;;;;;;23.97;18.94;99697.47;5070929;28;20032;-81
2021/10/24 06:20:17;;;;;;;5.10;2.78;;;;;;;23.88;18.87;99705.44;5065517;28;20402;-81
2021/10/24 06:22:43;;;;;;;6.22;1.75;;;;;;;23.89;19.02;99700.63;5068894;28;20130;-80
2021/10/24 06:25:11;;;;;;;3.13;1.70;;;;;;;23.78;18.99;99700.56;5067346;28;20481;-81
2021/10/24 06:27:42;;;;;;;4.05;1.73;;;;;;;24.03;19.05;99704.31;5065972;28;20044;-81
2021/10/24 06:30:10;;;;;;;4.63;1.63;;;;;;;24.34;18.56;99708.44;5067799;28;20028;-81
2021/10/24 06:32:38;;;;;;;7.22;2.30;;;;;;;24.42;18.79;99701.66;5067826;28;20119;-80
2021/10/24 06:35:05;;;;;;;9.50;2.53;;;;;;;24.52;19.22;99711.31;5066183;28;20563;-80
2021/10/24 06:37:42;;;;;;;5.18;2.65;;;;;;;24.61;18.74;99717.34;5066680;28;20041;-80
2021/10/24 06:40:10;;;;;;;4.57;2.20;;;;;;;24.89;18.64;99708.97;5067980;28;20036;-80
2021/10/24 06:42:37;;;;;;;6.80;2.13;;;;;;;24.93;18.83;99711.78;5070755;28;20028;-80
2021/10/24 06:45:05;;;;;;;4.38;2.10;;;;;;;25.14;18.52;99720.22;5064435;28;20068;-80
2021/10/24 06:47:31;;;;;;;5.65;3.08;;;;;;;25.26;18.73;99725.44;5072421;28;20044;-80
2021/10/24 06:49:57;;;;;;;7.72;3.55;;;;;;;25.35;18.50;99723.81;5069157;28;20060;-80
2021/10/24 06:52:23;;;;;;;9.23;3.70;;;;;;;25.46;18.45;99732.28;5068644;28;20032;-81
2021/10/24 06:54:49;;;;;;;10.55;4.18;;;;;;;25.43;18.41;99727.44;5068324;28;20028;-80
2021/10/24 06:57:15;;;;;;;13.57;5.75;;;;;;;25.36;18.44;99733.06;5068587;28;20052;-80
2021/10/24 06:59:44;;;;;;;10.23;4.95;;;;;;;25.28;18.90;99729.44;5069675;28;20068;-80
2021/10/24 07:02:10;;;;;;;14.25;5.30;;;;;;;25.38;19.13;99730.66;5068844;28;20401;-80
2021/10/24 07:04:37;;;;;;;11.80;5.28;;;;;;;25.40;19.18;99723.41;5060129;28;20051;-80
2021/10/24 07:07:04;;;;;;;8.68;3.42;;;;;;;25.46;19.36;99728.66;5070429;28;20028;-80
2021/10/24 07:09:30;;;;;;;7.80;3.95;;;;;;;25.29;19.90;99730.25;5065544;28;20037;-80
2021/10/24 07:11:57;;;;;;;7.35;3.28;;;;;;;25.38;19.75;99731.44;5069302;28;20032;-81
2021/10/24 07:14:23;;;;;;;8.93;3.08;;;;;;;25.25;20.10;99723.84;5069376;28;20488;-80
2021/10/24 07:16:49;;;;;;;11.32;4.88;;;;;;;24.97;20.69;99729.47;5071726;28;20032;-81
2021/10/24 07:19:15;;;;;;;11.60;4.82;;;;;;;24.94;20.78;99727.44;5073633;28;20048;-81
2021/10/24 07:21:44;;;;;;;8.77;3.17;;;;;;;25.20;20.73;99736.28;5051900;28;20052;-80
2021/10/24 07:24:13;;;;;;;7.72;3.17;;;;;;;25.42;20.27;99729.44;5071125;28;20078;-81
2021/10/24 07:26:42;;;;;;;7.53;3.90;;;;;;;25.52;20.12;99733.47;5073154;28;20036;-81
2021/10/24 07:29:29;;;;;;;7.53;3.15;;;;;;;25.67;19.98;99729.41;5066966;28;20032;-80
2021/10/24 07:31:55;;;;;;;9.10;2.80;;;;;;;25.90;20.06;99728.97;5068728;28;20031;-80
2021/10/24 07:34:21;;;;;;;4.93;2.70;;;;;;;26.14;20.16;99735.75;5066842;28;20582;-81
2021/10/24 07:36:47;;;;;;;8.07;3.20;;;;;;;25.73;19.96;99732.63;5066991;28;20088;-80
2021/10/24 07:39:13;;;;;;;6.07;3.05;;;;;;;25.39;20.46;99735.84;5064711;28;20528;-80
2021/10/24 07:41:39;;;;;;;10.07;3.08;;;;;;;25.70;20.48;99724.97;5068963;28;20031;-81
2021/10/24 07:44:07;;;;;;;7.82;3.63;;;;;;;25.91;20.80;99731.34;5070706;28;22600;-80
2021/10/24 07:46:33;;;;;;;5.30;2.65;;;;;;;26.32;20.11;99734.44;5064582;28;20025;-80
2021/10/24 07:48:59;;;;;;;6.05;3.05;;;;;;;26.46;19.60;99740.00;5090699;28;20043;-80
2021/10/24 07:51:25;;;;;;;7.60;2.70;;;;;;;26.65;19.79;99735.88;5055739;28;20086;-80
2021/10/24 07:53:53;;;;;;;6.38;3.15;;;;;;;26.68;19.87;99743.50;5074562;28;20105;-80
2021/10/24 07:56:19;;;;;;;7.85;2.88;;;;;;;26.61;19.80;99744.34;5053131;28;20482;-80
2021/10/24 07:58:46;;;;;;;8.00;2.90;;;;;;;26.67;19.96;99737.06;5066635;28;20021;-80
2021/10/24 08:01:14;;;;;;;7.88;3.42;;;;;;;26.91;19.82;99738.13;5061877;28;20035;-80
2021/10/24 08:03:40;;;;;;;7.18;2.85;;;;;;;27.04;19.69;99735.63;5084713;28;20036;-80
2021/10/24 08:06:06;;;;;;;6.75;2.65;;;;;;;27.00;19.58;99740.50;5083897;28;20035;-80
2021/10/24 08:08:38;;;;;;;6.53;2.25;;;;;;;27.02;19.51;99735.25;5072183;28;20033;-80
2021/10/24 08:11:07;;;;;;;7.97;2.85;;;;;;;26.58;20.09;99739.53;5072550;28;20081;-80
2021/10/24 08:13:33;;;;;;;3.95;2.40;;;;;;;26.49;20.28;99741.22;5052890;28;20134;-80
2021/10/24 08:16:00;;;;;;;4.13;2.00;;;;;;;26.32;20.47;99742.09;5069912;28;20024;-80
2021/10/24 08:18:26;;;;;;;5.40;2.25;;;;;;;25.84;20.83;99739.00;5036795;28;20062;-81
2021/10/24 08:20:55;;;;;;;4.97;2.05;;;;;;;25.96;21.37;99745.00;5082167;28;20412;-80
2021/10/24 08:23:25;;;;;;;2.95;1.67;;;;;;;26.22;20.88;99749.38;5077596;28;20047;-81
2021/10/24 08:25:52;;;;;;;8.60;1.90;;;;;;;26.60;20.23;99751.19;5081612;28;20056;-80
2021/10/24 08:28:22;;;;;;;5.10;1.98;;;;;;;26.56;20.57;99752.41;5058755;28;20032;-81
2021/10/24 08:30:51;;;;;;;7.10;2.67;;;;;;;26.25;20.56;99757.00;5076835;28;20500;-81
2021/10/24 08:33:20;;;;;;;5.82;2.03;;;;;;;24.89;21.26;99753.13;5058927;28;20043;-80
2021/10/24 08:35:46;;;;;;;9.73;2.85;;;;;;;24.48;22.97;99758.22;5065165;28;20087;-81
2021/10/24 08:38:14;;;;;;;7.60;2.67;;;;;;;25.24;21.98;99755.94;5057378;28;20087;-80
2021/10/24 08:40:45;;;;;;;6.30;2.25;;;;;;;25.34;22.21;99749.53;5045348;28;20059;-80
2021/10/24 08:43:29;;;;;;;;;;;;;;;24.44;22.57;99755.41;5077208;28;20140;-81
2021/10/24 08:45:55;;;;;;;4.57;1.83;;;;;;;23.73;23.52;99751.44;5076989;28;19999;-81
2021/10/24 08:48:21;;;;;;;5.75;2.38;;;;;;;23.56;24.10;99749.31;5076463;28;20055;-81
2021/10/24 08:50:49;;;;;;;6.13;2.63;;;;;;;23.63;23.37;99746.56;5077020;28;20039;-80
2021/10/24 08:53:29;;;;;;;6.25;2.78;;;;;;;23.71;24.21;99747.44;5076243;28;20510;-80
2021/10/24 08:55:55;;;;;;;5.63;2.63;;;;;;;25.38;22.38;99751.13;5076616;28;20037;-80
2021/10/24 08:58:22;;;;;;;9.27;3.25;;;;;;;25.27;22.13;99752.34;5076310;28;20478;-80
2021/10/24 09:00:50;;;;;;;5.53;2.60;;;;;;;24.98;22.36;99761.97;5076387;28;20040;-81
2021/10/24 09:03:16;;;;;;;5.13;2.40;;;;;;;24.47;23.12;99757.41;5076445;28;20055;-81
2021/10/24 09:05:48;;;;;;;6.57;1.77;;;;;;;25.79;21.58;99768.38;5076167;28;20469;-80
2021/10/24 09:08:19;;;;;;;7.45;2.30;;;;;;;26.42;20.86;99773.00;5060042;28;20481;-80
2021/10/24 09:10:51;;;;;;;6.75;2.10;;;;;;;27.14;20.08;99768.59;5076547;28;20039;-80
2021/10/24 09:13:27;;;;;;;9.80;2.08;;;;;;;27.08;19.95;99767.41;5057374;28;20036;-80
2021/10/24 09:16:05;;;;;;;7.85;2.88;;;;;;;26.53;20.59;99772.97;5076130;28;20082;-80
2021/10/24 09:18:38;;;;;;;4.15;2.00;;;;;;;26.24;21.16;99772.28;5061551;28;20056;-81
2021/10/24 09:21:16;;;;;;;7.60;2.65;;;;;;;24.60;23.00;99771.88;5071482;28;20029;-81
2021/10/24 09:23:43;;;;;;;5.53;2.15;;;;;;;24.47;23.05;99777.06;5080444;28;20037;-80
2021/10/24 09:26:25;;;;;;;8.43;1.63;;;;;;;24.05;23.31;99783.28;5073264;28;20052;-80
2021/10/24 09:29:14;;;;;;;6.70;1.77;;;;;;;24.81;22.58;99780.38;5072195;28;20036;-80
2021/10/24 09:31:49;;;;;;;5.85;2.65;;;;;;;25.49;22.18;99784.09;5071953;28;20127;-80
2021/10/24 09:34:20;;;;;;;4.95;1.52;;;;;;;25.15;21.64;99783.66;5071952;28;20493;-80
2021/10/24 09:36:50;;;;;;;;;;;;;;;25.93;21.07;99787.22;5072323;28;20035;-82
2021/10/24 09:39:16;;;;;;;7.78;1.67;;;;;;;25.88;20.92;99785.63;5073321;28;20270;-82
2021/10/24 09:41:42;;;;;;;6.97;2.15;;;;;;;26.36;20.12;99780.28;5055415;28;20449;-82
2021/10/24 09:44:14;;;;;;;3.10;1.52;;;;;;;26.63;20.32;99789.81;5070306;28;20520;-82
2021/10/24 09:46:53;;;;;;;3.08;1.40;;;;;;;26.24;20.19;99782.75;5064050;28;20037;-81
2021/10/24 09:49:19;;;;;;;5.00;1.63;;;;;;;26.45;19.89;99786.28;5037321;28;20037;-82
2021/10/24 09:51:45;;;;;;;5.50;1.40;;;;;;;25.99;20.58;99777.19;5055120;28;20033;-82
2021/10/24 09:54:23;;;;;;;4.70;1.20;;;;;;;26.17;20.38;99780.75;5055407;28;20108;-83
2021/10/24 09:56:50;;;;;;;4.13;1.45;;;;;;;26.40;20.19;99777.44;5055246;28;20033;-82
2021/10/24 09:59:21;;;;;;;2.78;0.98;;;;;;;26.54;20.05;99783.81;5067281;28;20555;-82
2021/10/24 10:01:49;;;;;;;;;;;;;;;26.95;20.22;99789.66;5074977;28;20029;-81
2021/10/24 10:04:15;;;;;;;2.42;1.48;;;;;;;25.50;21.96;99782.88;5055051;28;20351;-81
2021/10/24 10:06:44;;;;;;;3.53;1.30;;;;;;;26.27;20.38;99784.75;5062622;28;20369;-81
2021/10/24 10:09:12;;;;;;;3.92;1.75;;;;;;;26.26;20.93;99777.50;5073806;28;20037;-81
2021/10/24 10:12:05;;;;;;;4.03;1.30;;;;;;;27.14;19.53;99786.28;5069035;28;20030;-81
2021/10/24 10:14:39;;;;;;;4.32;1.05;;;;;;;27.88;18.96;99779.22;5065983;28;20080;-81
2021/10/24 10:17:10;;;;;;;2.88;1.05;;;;;;;28.25;18.03;99781.25;5068835;28;20098;-81
2021/10/24 10:19:38;;;;;;;2.42;1.00;;;;;;;28.36;17.37;99781.91;5072578;28;20581;-81
2021/10/24 10:22:23;;;;;;;3.78;1.48;;;;;;;28.08;17.98;99770.97;5074207;28;20516;-81
2021/10/24 10:24:55;;;;;;;2.97;1.30;;;;;;;28.29;18.25;99773.50;5072638;28;20508;-81
2021/10/24 10:27:27;;;;;;;3.78;1.25;;;;;;;28.20;18.05;99773.22;5076684;28;20028;-80
2021/10/24 10:29:56;;;;;;;4.45;1.08;;;;;;;27.52;18.02;99770.28;5073015;28;20044;-81
2021/10/24 10:32:37;;;;;;;5.90;0.98;;;;;;;27.30;19.13;99774.50;5074344;28;20024;-81
2021/10/24 10:35:07;;;;;;;3.15;1.20;;;;;;;27.42;18.40;99770.41;5074047;28;20028;-81
2021/10/24 10:37:49;;;;;;;4.53;1.20;;;;;;;27.79;18.24;99765.59;5068608;28;20095;-80
2021/10/24 10:40:20;;;;;;;2.15;0.85;;;;;;;28.59;18.34;99753.81;5069420;28;20027;-80
2021/10/24 10:42:47;;;;;;;3.50;0.75;;;;;;;29.16;17.44;99753.72;5065226;28;20036;-80
2021/10/24 10:45:16;;;;;;;3.03;0.65;;;;;;;28.26;17.38;99755.41;5067384;28;20107;-80
2021/10/24 10:47:50;;;;;;;3.15;0.80;;;;;;;27.24;18.17;99764.84;5065842;28;20063;-80
2021/10/24 10:50:39;;;;;;;3.50;1.30;;;;;;;26.01;19.62;99755.06;5068654;28;20044;-80
2021/10/24 10:53:07;;;;;;;1.80;0.90;;;;;;;25.92;20.18;99751.88;5034420;28;20062;-79
2021/10/24 10:55:55;;;;;;;1.33;0.63;;;;;;;25.55;19.26;99755.16;5050770;28;20095;-80
2021/10/24 10:58:36;;;;;;;2.40;0.82;;;;;;;25.18;20.20;99758.34;5068513;28;20439;-79
2021/10/24 11:01:04;;;;;;;2.38;0.90;;;;;;;25.35;20.30;99759.56;5065799;28;20528;-80
2021/10/24 11:03:53;;;;;;;2.38;0.88;;;;;;;25.61;20.21;99756.34;5062392;28;20106;-80
2021/10/24 11:06:28;;;;;;;1.48;0.85;;;;;;;25.34;20.05;99744.69;5072425;28;20029;-80
2021/10/24 11:09:09;;;;;;;5.63;0.93;;;;;;;25.00;20.06;99753.94;5064898;28;20060;-80
2021/10/24 11:11:41;;;;;;;4.78;0.75;;;;;;;25.44;19.82;99751.53;5062161;28;20047;-80
2021/10/24 11:14:16;;;;;;;1.98;0.75;;;;;;;26.07;18.75;99747.78;5063240;28;20040;-80
2021/10/24 11:16:50;;;;;;;2.28;0.90;;;;;;;26.90;18.02;99747.00;5059329;28;20482;-81
2021/10/24 11:19:29;;;;;;;2.40;0.70;;;;;;;26.99;17.42;99747.34;5057151;28;20045;-80
2021/10/24 11:22:04;;;;;;;1.63;0.77;;;;;;;27.48;17.77;99741.31;5055042;28;20060;-82
2021/10/24 11:24:37;;;;;;;3.58;0.70;;;;;;;28.26;16.93;99744.13;5060309;28;20048;-81
2021/10/24 11:27:05;;;;;;;1.63;0.47;;;;;;;27.80;16.84;99736.13;5064373;28;20037;-80
2021/10/24 11:29:35;;;;;;;3.42;0.57;;;;;;;27.42;16.94;99738.13;5063762;28;20097;-82
2021/10/24 11:32:34;;;;;;;1.65;0.60;;;;;;;25.64;17.70;99733.06;5064928;28;20516;-82
2021/10/24 11:35:16;;;;;;;5.18;1.35;;;;;;;25.85;18.10;99732.19;5064999;28;20154;-81
2021/10/24 11:37:50;;;;;;;1.65;0.55;;;;;;;24.25;20.13;99736.06;5066081;28;20024;-81
2021/10/24 11:40:31;;;;;;;5.93;0.70;;;;;;;25.45;19.15;99735.47;5061861;28;20047;-82